createdAt,value
2014-08-10T00:01:20.976Z,0
2014-08-10T00:08:21.522Z,0
2014-08-10T00:15:22.081Z,0
2014-08-10T00:22:22.642Z,0
2014-08-10T00:29:23.186Z,0
2014-08-10T00:37:23.796Z,0
2014-08-10T00:44:24.373Z,0
2014-08-10T00:51:24.901Z,0
2014-08-10T00:59:25.509Z,0
2014-08-10T01:07:26.103Z,0
2014-08-10T01:15:26.713Z,0
2014-08-10T01:23:27.322Z,0
2014-08-10T01:31:27.930Z,0
2014-08-10T01:39:28.524Z,0
2014-08-10T01:48:29.182Z,0
2014-08-10T01:55:29.744Z,0
2014-08-10T02:01:30.238Z,0
2014-08-10T02:10:30.896Z,0
2014-08-10T02:18:31.506Z,0
2014-08-10T02:26:32.099Z,0
2014-08-10T02:34:32.740Z,0
2014-08-10T02:43:33.366Z,0
2014-08-10T06:08:00.209Z,482
2014-08-10T06:16:00.819Z,465
2014-08-10T06:24:01.428Z,472
2014-08-10T06:33:02.070Z,484
2014-08-10T06:39:02.566Z,492
2014-08-10T06:47:03.160Z,551
2014-08-10T06:57:03.866Z,551
2014-08-10T07:04:04.396Z,572
2014-08-10T07:10:04.875Z,591
2014-08-10T07:16:05.356Z,570
2014-08-10T07:25:05.998Z,592
2014-08-10T07:33:06.592Z,592
2014-08-10T07:40:07.136Z,657
2014-08-10T07:48:07.730Z,637
2014-08-10T07:58:08.436Z,673
2014-08-10T08:06:09.031Z,634
2014-08-10T08:14:09.639Z,595
2014-08-10T08:23:10.281Z,676
2014-08-10T08:33:10.988Z,612
2014-08-10T08:42:11.662Z,630
2014-08-10T08:50:12.255Z,650
2014-08-10T08:59:12.913Z,654
2014-08-10T09:08:13.556Z,634
2014-08-10T09:16:14.151Z,632
2014-08-10T09:24:14.743Z,661
2014-08-10T09:31:15.288Z,622
2014-08-10T09:39:15.865Z,719
2014-08-10T09:47:16.459Z,632
2014-08-10T09:55:17.053Z,693
2014-08-10T10:04:17.695Z,686
2014-08-10T10:12:18.290Z,708
2014-08-10T10:22:19.011Z,712
2014-08-10T10:32:19.717Z,720
2014-08-10T10:41:20.375Z,735
2014-08-10T10:51:21.083Z,758
2014-08-10T11:00:21.739Z,760
2014-08-10T11:07:22.283Z,719
2014-08-10T11:18:40.790Z,769
2014-08-10T11:27:41.449Z,729
2014-08-10T11:36:42.107Z,682
2014-08-10T11:43:42.668Z,696
2014-08-10T11:49:43.180Z,718
2014-08-10T12:15:14.837Z,614
2014-08-10T12:23:15.430Z,629
2014-08-10T12:32:16.104Z,652
2014-08-10T12:40:16.713Z,669
2014-08-10T12:47:16.149Z,626
2014-08-10T12:54:16.708Z,666
2014-08-10T13:02:17.318Z,699
2014-08-10T13:09:17.878Z,736
2014-08-10T13:18:18.535Z,704
2014-08-10T13:26:19.145Z,729
2014-08-10T13:33:19.706Z,745
2014-08-10T13:40:20.268Z,700
2014-08-10T13:47:20.810Z,688
2014-08-10T13:56:21.483Z,664
2014-08-10T14:03:22.029Z,635
2014-08-10T14:13:22.767Z,693
2014-08-10T14:21:23.377Z,776
2014-08-10T14:29:23.985Z,750
2014-08-10T14:38:24.670Z,643
2014-08-10T14:47:25.569Z,690
2014-08-10T14:56:26.255Z,777
2014-08-10T15:02:26.773Z,681
2014-08-10T15:09:27.334Z,640
2014-08-10T15:16:27.895Z,542
2014-08-10T15:23:11.518Z,574
2014-08-10T15:31:12.125Z,479
2014-08-10T15:38:12.672Z,404
2014-08-10T15:44:13.182Z,435
2014-08-10T15:53:13.856Z,455
2014-08-10T16:01:14.465Z,375
2014-08-10T16:11:15.172Z,395
2014-08-10T16:18:15.732Z,410
2014-08-10T16:27:16.391Z,344
2014-08-10T16:35:17.016Z,335
2014-08-10T16:43:17.625Z,261
2014-08-10T16:52:18.282Z,169
2014-08-10T17:00:18.892Z,259
2014-08-10T17:08:19.516Z,368
2014-08-10T17:17:20.174Z,363
2014-08-10T17:23:20.669Z,422
2014-08-10T17:31:21.279Z,374
2014-08-10T17:39:21.904Z,381
2014-08-10T17:47:22.513Z,446
2014-08-10T17:55:23.122Z,486
2014-08-10T18:03:23.731Z,381
2014-08-10T18:10:24.291Z,356
2014-08-10T18:17:24.852Z,282
2014-08-10T18:24:25.397Z,228
2014-08-10T18:31:25.957Z,190
2014-08-10T18:39:26.566Z,161
2014-08-10T18:47:27.175Z,104
2014-08-10T18:54:27.737Z,151
2014-08-10T19:03:28.393Z,134
2014-08-10T19:12:29.052Z,128
2014-08-10T19:21:29.709Z,122
2014-08-10T19:31:30.431Z,121
2014-08-10T19:39:31.041Z,122
2014-08-10T19:47:31.651Z,121
2014-08-10T19:55:32.258Z,616
2014-08-10T20:03:32.869Z,609
2014-08-10T20:12:33.526Z,613
2014-08-10T20:22:34.248Z,609
2014-08-10T20:30:34.858Z,610
2014-08-10T20:40:35.564Z,607
2014-08-10T20:50:36.286Z,600
2014-08-10T20:59:36.945Z,0
2014-08-10T21:09:37.682Z,0
2014-08-10T21:18:38.340Z,0
2014-08-10T21:25:38.901Z,0
2014-08-10T21:34:39.558Z,0
2014-08-10T21:43:40.216Z,0
2014-08-10T21:49:40.713Z,0
2014-08-10T21:56:41.273Z,0
2014-08-10T22:03:41.832Z,0
2014-08-10T22:11:42.427Z,0
2014-08-10T22:18:42.987Z,0
2014-08-10T22:28:43.693Z,0
2014-08-10T22:36:44.303Z,0
2014-08-10T22:44:44.911Z,0
2014-08-10T22:51:45.471Z,0
2014-08-10T22:59:46.082Z,0
2014-08-10T23:07:46.674Z,0
2014-08-10T23:15:47.315Z,0
2014-08-10T23:22:47.845Z,0
2014-08-10T23:31:48.503Z,0
2014-08-10T23:38:49.062Z,0
2014-08-10T23:48:49.983Z,0
2014-08-10T23:56:50.691Z,0
